Terminal Aerodrome Forecast
Issued by NWS New Orleans/Baton Rouge, LA

Home | Current Version | Previous Version | Text Only | Print | Product List | Glossary On
Versions: 1 2 3 4 5 6 7 8 9 10 11 12 13 14 15 16 17 18 19 20 21 22 23 24 25 26 27 28 29 30 31 32 33 34 35 36 37 38 39 40 41 42 43 44 45 46 47
440
FTUS44 KLIX 221039 AAA
TAFNEW
TAF AMD
KNEW 221039Z 2211/2306 00000KT 1SM BR VV015
      TEMPO 2211/2212 1/4SM FG VV008
     FM221300 25016G24KT P6SM SCT060
     FM230300 29022G34KT P6SM SCT050=

USA.gov is the U.S. government's official web portal to all federal, state and local government web resources and services.